Time;durP1;ratioP1;P1;durP2;ratioP2;P2;SDS_P1;SDS_P2;PMS_P1;PMS_P2;Temp;Humidity;BMP_temperature;BMP_pressure;BME280_temperature;BME280_humidity;BME280_pressure;Samples;Min_cycle;Max_cycle;Signal;HPM_P1;HPM_P2
2021/05/07 00:02:15;;;;;;;6.85;4.45;;;;;;;4.43;100.00;100717.81;3560599;40;20072;-62
2021/05/07 00:04:41;;;;;;;6.47;4.20;;;;;;;4.50;100.00;100727.09;3561023;40;20061;-64
2021/05/07 00:07:07;;;;;;;7.18;4.40;;;;;;;4.43;100.00;100723.16;3560804;40;20050;-61
2021/05/07 00:09:33;;;;;;;7.32;4.20;;;;;;;4.37;100.00;100720.84;3560394;40;20049;-62
2021/05/07 00:12:00;;;;;;;8.57;4.63;;;;;;;4.31;100.00;100726.59;3557228;40;20041;-61
2021/05/07 00:14:26;;;;;;;5.60;4.30;;;;;;;4.29;100.00;100717.84;3556176;40;20056;-61
2021/05/07 00:16:53;;;;;;;6.30;4.05;;;;;;;4.28;100.00;100724.97;3561200;40;20067;-61
2021/05/07 00:19:19;;;;;;;5.93;4.13;;;;;;;4.19;100.00;100728.25;3562401;40;20041;-64
2021/05/07 00:21:45;;;;;;;6.93;3.97;;;;;;;4.21;100.00;100727.19;3562767;40;20056;-61
2021/05/07 00:24:12;;;;;;;6.13;4.03;;;;;;;4.14;100.00;100720.53;3561122;40;20061;-62
2021/05/07 00:26:38;;;;;;;6.85;4.05;;;;;;;3.97;100.00;100729.59;3562843;40;20045;-62
2021/05/07 00:29:04;;;;;;;6.45;4.65;;;;;;;3.90;100.00;100724.75;3562382;40;20162;-62
2021/05/07 00:31:30;;;;;;;7.00;4.30;;;;;;;3.89;100.00;100731.03;3561832;40;20424;-61
2021/05/07 00:33:56;;;;;;;8.18;4.00;;;;;;;3.84;100.00;100731.31;3559084;40;20046;-60
2021/05/07 00:36:22;;;;;;;8.20;4.15;;;;;;;3.78;100.00;100732.56;3562591;40;20061;-60
2021/05/07 00:38:49;;;;;;;6.82;5.05;;;;;;;3.68;100.00;100726.97;3561985;40;20034;-61
2021/05/07 00:41:15;;;;;;;6.60;4.25;;;;;;;3.62;100.00;100731.78;3562414;40;20046;-60
2021/05/07 00:43:42;;;;;;;6.05;4.35;;;;;;;3.59;100.00;100734.66;3561960;40;20049;-60
2021/05/07 00:46:09;;;;;;;7.10;4.55;;;;;;;3.55;100.00;100733.13;3558596;40;20055;-63
2021/05/07 00:48:37;;;;;;;6.85;4.15;;;;;;;3.48;100.00;100733.50;3562539;40;20067;-60
2021/05/07 00:51:03;;;;;;;5.30;4.32;;;;;;;3.37;100.00;100737.75;3562131;40;20062;-61
2021/05/07 00:53:29;;;;;;;8.57;4.63;;;;;;;3.37;100.00;100741.25;3561951;40;20063;-62
2021/05/07 00:55:56;;;;;;;6.82;4.32;;;;;;;3.33;100.00;100742.44;3562685;40;20055;-61
2021/05/07 00:58:22;;;;;;;6.45;4.57;;;;;;;3.24;100.00;100742.97;3562525;40;20061;-60
2021/05/07 01:00:50;;;;;;;7.68;4.85;;;;;;;3.24;100.00;100745.63;3562690;40;20145;-60
2021/05/07 01:03:19;;;;;;;6.40;4.78;;;;;;;3.18;100.00;100743.31;3557671;40;20050;-64
2021/05/07 01:05:45;;;;;;;9.97;5.50;;;;;;;3.12;100.00;100741.88;3559076;40;20277;-60
2021/05/07 01:08:12;;;;;;;6.13;4.60;;;;;;;3.18;100.00;100738.88;3562299;40;20283;-60
2021/05/07 01:10:38;;;;;;;7.13;5.15;;;;;;;3.18;100.00;100746.00;3562722;40;20487;-62
2021/05/07 01:13:04;;;;;;;7.03;4.47;;;;;;;3.07;100.00;100731.53;3561813;40;20061;-62
2021/05/07 01:15:30;;;;;;;9.05;4.95;;;;;;;3.09;100.00;100734.97;3562301;40;20367;-59
2021/05/07 01:17:58;;;;;;;8.73;5.43;;;;;;;3.13;100.00;100748.94;3562429;40;20064;-59
2021/05/07 01:20:26;;;;;;;6.78;4.97;;;;;;;3.21;100.00;100756.44;3562077;40;20072;-59
2021/05/07 01:22:53;;;;;;;7.85;5.47;;;;;;;3.23;100.00;100751.91;3560669;40;20402;-60
2021/05/07 01:25:21;;;;;;;6.78;4.95;;;;;;;3.15;100.00;100750.56;3562575;40;20044;-61
2021/05/07 01:27:49;;;;;;;7.70;5.32;;;;;;;3.19;100.00;100753.03;3562866;40;20143;-61
2021/05/07 01:30:17;;;;;;;7.78;5.20;;;;;;;3.19;100.00;100758.34;3570156;40;20385;-59
2021/05/07 01:32:44;;;;;;;6.70;4.93;;;;;;;3.09;100.00;100756.25;3571398;40;20085;-63
2021/05/07 01:35:14;;;;;;;6.15;5.25;;;;;;;3.13;100.00;100751.59;3572012;40;20333;-61
2021/05/07 01:37:42;;;;;;;8.98;5.50;;;;;;;3.21;100.00;100756.44;3571758;40;20052;-60
2021/05/07 01:40:17;;;;;;;8.40;5.43;;;;;;;3.17;100.00;100753.13;3571423;40;20053;-61
2021/05/07 01:42:43;;;;;;;10.98;5.43;;;;;;;3.10;100.00;100751.78;3570675;40;20254;-60
2021/05/07 01:45:10;;;;;;;8.32;5.05;;;;;;;3.04;100.00;100757.47;3571503;40;20100;-61
2021/05/07 01:47:37;;;;;;;6.97;5.75;;;;;;;3.08;100.00;100754.53;3571507;40;20044;-60
2021/05/07 01:50:05;;;;;;;8.23;5.20;;;;;;;3.01;100.00;100754.97;3571644;40;20130;-61
2021/05/07 01:52:31;;;;;;;7.78;5.18;;;;;;;3.11;100.00;100758.81;3571538;40;20081;-62
2021/05/07 01:54:57;;;;;;;9.40;5.05;;;;;;;3.18;100.00;100764.59;3571363;40;20060;-64
2021/05/07 01:57:28;;;;;;;9.43;5.70;;;;;;;3.17;100.00;100760.25;3570850;40;20069;-61
2021/05/07 01:59:54;;;;;;;7.43;5.20;;;;;;;3.23;100.00;100758.06;3571831;40;20327;-61
2021/05/07 02:02:20;;;;;;;8.65;5.40;;;;;;;3.24;100.00;100758.91;3571629;40;20066;-61
2021/05/07 02:04:46;;;;;;;8.93;5.65;;;;;;;3.31;100.00;100765.59;3571614;40;20079;-61
2021/05/07 02:07:12;;;;;;;9.90;5.50;;;;;;;3.37;100.00;100770.53;3571619;40;20053;-61
2021/05/07 02:09:38;;;;;;;9.43;5.70;;;;;;;3.36;100.00;100758.19;3571405;40;20052;-61
2021/05/07 02:12:05;;;;;;;8.90;5.95;;;;;;;3.27;100.00;100772.06;3571174;40;20064;-64
2021/05/07 02:14:31;;;;;;;11.43;6.13;;;;;;;3.29;100.00;100768.34;3570839;40;20053;-61
2021/05/07 02:17:00;;;;;;;11.73;6.10;;;;;;;3.42;100.00;100773.78;3636754;23;20062;-61
2021/05/07 02:19:26;;;;;;;10.05;6.05;;;;;;;3.43;100.00;100786.16;3582018;40;20056;-61
2021/05/07 02:21:51;;;;;;;9.20;6.20;;;;;;;3.45;100.00;100789.56;3581581;40;20051;-62
2021/05/07 02:24:17;;;;;;;6.75;5.45;;;;;;;3.49;100.00;100791.09;3580444;40;20060;-62
2021/05/07 02:26:44;;;;;;;9.02;6.10;;;;;;;3.57;100.00;100793.28;3581362;40;20072;-63
2021/05/07 02:29:10;;;;;;;8.63;5.32;;;;;;;3.60;100.00;100786.94;3580991;40;20385;-61
2021/05/07 02:31:36;;;;;;;8.18;5.75;;;;;;;3.61;100.00;100791.31;3581663;40;20040;-61
2021/05/07 02:34:03;;;;;;;7.72;5.60;;;;;;;3.65;100.00;100788.38;3581090;40;20063;-61
2021/05/07 02:36:29;;;;;;;10.05;5.90;;;;;;;3.63;100.00;100792.06;3582009;40;20145;-59
2021/05/07 02:38:55;;;;;;;8.45;6.45;;;;;;;3.69;100.00;100786.38;3582511;40;20052;-64
2021/05/07 02:41:21;;;;;;;9.13;5.38;;;;;;;3.68;100.00;100789.97;3581088;40;20058;-61
2021/05/07 02:43:47;;;;;;;10.38;5.95;;;;;;;3.71;100.00;100792.47;3580594;40;20037;-60
2021/05/07 02:46:15;;;;;;;10.43;5.65;;;;;;;3.76;100.00;100787.72;3581315;40;20080;-62
2021/05/07 02:48:41;;;;;;;13.55;6.18;;;;;;;3.71;100.00;100781.81;3582109;40;20041;-62
2021/05/07 02:51:07;;;;;;;11.75;6.50;;;;;;;3.73;100.00;100787.06;3581020;40;20036;-65
2021/05/07 02:53:33;;;;;;;9.60;6.18;;;;;;;3.77;100.00;100792.09;3580090;40;20056;-61
2021/05/07 02:55:59;;;;;;;8.05;6.10;;;;;;;3.84;100.00;100785.44;3581338;40;20079;-61
2021/05/07 02:58:25;;;;;;;9.18;6.53;;;;;;;3.93;100.00;100788.47;3581579;40;20053;-62
2021/05/07 03:00:51;;;;;;;10.07;6.25;;;;;;;3.81;100.00;100790.97;3581360;40;20041;-61
2021/05/07 03:03:17;;;;;;;10.23;6.57;;;;;;;3.79;100.00;100795.50;3581188;40;20048;-61
2021/05/07 03:05:43;;;;;;;11.32;6.55;;;;;;;3.78;100.00;100791.13;3581554;40;20105;-63
2021/05/07 03:08:09;;;;;;;12.25;8.00;;;;;;;3.72;100.00;100791.50;3580957;40;20040;-61
2021/05/07 03:10:35;;;;;;;9.05;6.78;;;;;;;3.65;100.00;100790.16;3581479;40;20064;-60
2021/05/07 03:15:28;;;;;;;10.32;6.50;;;;;;;3.84;100.00;100801.41;3639066;23;20034;-62
2021/05/07 03:17:55;;;;;;;9.25;6.93;;;;;;;3.84;100.00;100801.41;3561802;40;20548;-60
2021/05/07 03:20:22;;;;;;;11.23;6.95;;;;;;;3.78;100.00;100808.91;3560939;40;20052;-60
2021/05/07 03:22:48;;;;;;;15.70;6.53;;;;;;;3.69;100.00;100818.31;3560706;40;20049;-61
2021/05/07 03:25:15;;;;;;;9.93;7.15;;;;;;;3.67;100.00;100820.22;3560962;40;20144;-63
2021/05/07 03:27:41;;;;;;;11.70;7.03;;;;;;;3.68;100.00;100824.56;3561652;40;20533;-60
2021/05/07 03:30:08;;;;;;;9.07;6.65;;;;;;;3.70;100.00;100836.00;3560714;40;20082;-60
2021/05/07 03:32:34;;;;;;;14.25;7.13;;;;;;;3.68;100.00;100835.22;3561690;40;20300;-61
2021/05/07 03:35:00;;;;;;;11.05;6.82;;;;;;;3.77;100.00;100842.66;3561641;40;20069;-62
2021/05/07 03:37:26;;;;;;;10.77;7.55;;;;;;;3.76;100.00;100846.28;3560412;40;20376;-64
2021/05/07 03:39:52;;;;;;;10.55;7.40;;;;;;;3.73;100.00;100843.81;3561401;40;20060;-62
2021/05/07 03:42:19;;;;;;;10.77;7.07;;;;;;;3.75;100.00;100857.00;3561144;40;20061;-60
2021/05/07 03:44:45;;;;;;;10.77;7.13;;;;;;;3.72;100.00;100854.53;3560589;40;20639;-61
2021/05/07 03:47:11;;;;;;;10.13;6.80;;;;;;;3.74;100.00;100861.50;3561470;40;20049;-61
2021/05/07 03:49:37;;;;;;;11.60;7.00;;;;;;;3.68;100.00;100857.38;3560753;40;20309;-61
2021/05/07 03:52:03;;;;;;;10.60;7.68;;;;;;;3.67;100.00;100863.66;3560305;40;20383;-64
2021/05/07 03:54:30;;;;;;;11.15;7.88;;;;;;;3.72;100.00;100871.34;3560181;40;20362;-61
2021/05/07 03:56:56;;;;;;;12.15;7.72;;;;;;;3.72;100.00;100878.50;3561244;40;20071;-60
2021/05/07 03:59:22;;;;;;;10.35;8.02;;;;;;;3.80;100.00;100879.75;3560887;40;20075;-62
2021/05/07 04:01:48;;;;;;;10.85;7.53;;;;;;;3.83;100.00;100884.91;3560838;40;20380;-63
2021/05/07 04:04:14;;;;;;;14.55;7.90;;;;;;;3.95;100.00;100898.44;3560951;40;20049;-60
2021/05/07 04:06:40;;;;;;;10.30;6.88;;;;;;;3.94;100.00;100891.38;3561393;40;20053;-64
2021/05/07 04:09:09;;;;;;;8.52;6.50;;;;;;;3.97;100.00;100891.19;3560866;40;20045;-60
2021/05/07 04:11:40;;;;;;;11.18;5.10;;;;;;;3.99;100.00;100895.47;3560833;40;20078;-65
2021/05/07 04:14:07;;;;;;;7.43;4.95;;;;;;;4.04;100.00;100893.38;3560505;40;20046;-62
2021/05/07 04:16:32;;;;;;;9.70;4.75;;;;;;;4.08;100.00;100898.50;3560472;40;20042;-63
2021/05/07 04:18:58;;;;;;;6.63;4.15;;;;;;;4.10;100.00;100907.28;3561516;40;21025;-60
2021/05/07 04:21:24;;;;;;;4.55;3.20;;;;;;;4.06;100.00;100913.75;3560787;40;20079;-65
2021/05/07 04:23:50;;;;;;;3.55;3.00;;;;;;;4.09;100.00;100917.06;3560708;40;20037;-60
2021/05/07 04:26:18;;;;;;;3.75;3.13;;;;;;;4.14;100.00;100922.16;3559015;40;20074;-61
2021/05/07 04:28:45;;;;;;;5.57;3.70;;;;;;;3.97;100.00;100924.00;3560323;40;20046;-66
2021/05/07 04:31:11;;;;;;;5.20;3.50;;;;;;;3.88;100.00;100935.19;3559245;40;20078;-61
2021/05/07 04:33:37;;;;;;;5.55;3.90;;;;;;;3.81;100.00;100939.16;3560125;40;20057;-65
2021/05/07 04:36:04;;;;;;;6.90;3.53;;;;;;;3.83;100.00;100937.28;3559816;40;20108;-63
2021/05/07 04:38:30;;;;;;;5.07;3.90;;;;;;;3.81;100.00;100944.50;3560423;40;20046;-60
2021/05/07 04:40:56;;;;;;;5.40;3.63;;;;;;;3.94;100.00;100944.63;3561147;40;20316;-61
2021/05/07 04:43:22;;;;;;;4.97;3.20;;;;;;;3.89;100.00;100946.69;3560032;40;20097;-60
2021/05/07 04:45:49;;;;;;;5.50;3.65;;;;;;;3.84;100.00;100953.19;3560061;40;20384;-62
2021/05/07 04:48:16;;;;;;;4.90;3.45;;;;;;;3.86;100.00;100959.25;3560405;40;20061;-61
2021/05/07 04:50:43;;;;;;;6.78;3.20;;;;;;;3.88;100.00;100966.31;3561047;40;20061;-61
2021/05/07 04:53:09;;;;;;;6.43;3.17;;;;;;;3.80;100.00;100966.75;3559932;40;20082;-60
2021/05/07 04:55:36;;;;;;;6.05;2.80;;;;;;;3.87;100.00;100981.41;3560055;40;20058;-63
2021/05/07 04:58:02;;;;;;;4.72;3.53;;;;;;;3.76;100.00;100971.41;3560961;40;20046;-65
2021/05/07 05:00:28;;;;;;;4.90;3.17;;;;;;;3.80;100.00;100975.59;3560214;40;20085;-60
2021/05/07 05:02:55;;;;;;;8.48;3.55;;;;;;;3.78;100.00;100993.44;3560088;40;20150;-61
2021/05/07 05:05:21;;;;;;;8.75;3.30;;;;;;;3.78;100.00;100990.78;3562397;40;20311;-63
2021/05/07 05:07:48;;;;;;;3.90;2.78;;;;;;;3.81;100.00;100998.63;3562527;40;20081;-62
2021/05/07 05:10:14;;;;;;;5.35;3.38;;;;;;;3.71;100.00;100996.56;3561409;40;20070;-64
2021/05/07 05:12:40;;;;;;;5.93;3.22;;;;;;;3.67;100.00;101003.88;3562122;40;20081;-61
2021/05/07 05:15:06;;;;;;;5.03;2.97;;;;;;;3.57;100.00;101008.00;3562179;40;20048;-61
2021/05/07 05:17:32;;;;;;;4.97;3.78;;;;;;;3.56;100.00;101011.59;3562009;40;20056;-61
2021/05/07 05:19:59;;;;;;;4.93;3.67;;;;;;;3.67;100.00;101011.88;3562235;40;20061;-62
2021/05/07 05:22:25;;;;;;;4.88;3.65;;;;;;;3.75;100.00;101014.94;3562053;40;20049;-62
2021/05/07 05:24:51;;;;;;;6.28;4.28;;;;;;;3.74;100.00;101012.34;3562054;40;20042;-65
2021/05/07 05:27:17;;;;;;;5.88;3.65;;;;;;;3.73;100.00;101026.63;3562359;40;20404;-64
2021/05/07 05:29:43;;;;;;;4.93;3.72;;;;;;;3.61;100.00;101033.50;3562507;40;20478;-61
2021/05/07 05:32:09;;;;;;;5.55;3.65;;;;;;;3.69;100.00;101036.59;3562072;40;20057;-61
2021/05/07 05:34:35;;;;;;;4.95;3.90;;;;;;;3.71;100.00;101033.84;3561547;40;20368;-61
2021/05/07 05:37:02;;;;;;;6.97;4.05;;;;;;;3.80;100.00;101034.16;3562452;40;20042;-62
2021/05/07 05:39:28;;;;;;;7.18;4.03;;;;;;;3.79;100.00;101043.09;3560740;40;20061;-61
2021/05/07 05:41:54;;;;;;;5.07;4.00;;;;;;;3.89;100.00;101046.09;3562409;40;20057;-61
2021/05/07 05:44:20;;;;;;;4.78;3.70;;;;;;;3.83;100.00;101047.31;3561475;40;20057;-61
2021/05/07 05:46:46;;;;;;;5.32;3.60;;;;;;;3.77;100.00;101055.66;3562265;40;20057;-64
2021/05/07 05:49:12;;;;;;;5.43;4.10;;;;;;;3.88;100.00;101054.19;3561630;40;20297;-63
2021/05/07 05:51:38;;;;;;;7.07;4.20;;;;;;;4.00;100.00;101061.44;3561815;40;20485;-61
2021/05/07 05:54:06;;;;;;;5.72;3.90;;;;;;;4.13;100.00;101057.13;3560885;40;20080;-64
2021/05/07 05:56:32;;;;;;;5.47;4.10;;;;;;;4.15;100.00;101060.56;3562003;40;20054;-61
2021/05/07 05:58:58;;;;;;;4.85;3.50;;;;;;;4.29;100.00;101066.91;3561363;40;20055;-63
2021/05/07 06:01:24;;;;;;;5.97;4.03;;;;;;;4.30;100.00;101064.13;3556965;40;20062;-61
2021/05/07 06:03:50;;;;;;;9.25;4.32;;;;;;;4.39;100.00;101068.06;3559171;40;20050;-61
2021/05/07 06:06:17;;;;;;;7.72;4.00;;;;;;;4.56;100.00;101070.59;3561259;40;20049;-64
2021/05/07 06:08:43;;;;;;;6.10;3.90;;;;;;;4.64;100.00;101070.13;3554708;40;20042;-61
2021/05/07 06:11:10;;;;;;;6.47;3.83;;;;;;;4.92;100.00;101079.09;3559226;40;20056;-61
2021/05/07 06:13:36;;;;;;;4.80;3.33;;;;;;;5.16;100.00;101087.38;3561159;40;20064;-64
2021/05/07 06:16:02;;;;;;;5.65;3.75;;;;;;;5.23;100.00;101086.06;3561317;40;20380;-62
2021/05/07 06:18:28;;;;;;;7.28;3.88;;;;;;;5.47;100.00;101088.13;3562330;40;20038;-61
2021/05/07 06:23:32;;;;;;;4.78;2.92;;;;;;;5.73;100.00;101088.28;3604431;23;20033;-62
2021/05/07 06:25:59;;;;;;;4.97;3.17;;;;;;;5.70;100.00;101100.00;3572014;40;20093;-61
2021/05/07 06:28:26;;;;;;;5.10;3.13;;;;;;;5.64;100.00;101095.06;3571645;40;20312;-61
2021/05/07 06:30:55;;;;;;;5.20;3.33;;;;;;;5.89;100.00;101102.34;3571945;40;20388;-61
2021/05/07 06:33:21;;;;;;;5.88;3.88;;;;;;;5.80;100.00;101105.63;3571546;40;20349;-61
2021/05/07 06:35:47;;;;;;;4.38;3.33;;;;;;;5.95;100.00;101104.63;3571865;40;20044;-59
2021/05/07 06:38:13;;;;;;;5.72;3.60;;;;;;;5.97;100.00;101108.06;3571845;40;20497;-60
2021/05/07 06:40:39;;;;;;;6.32;4.18;;;;;;;5.96;100.00;101109.00;3571069;40;20065;-60
2021/05/07 06:43:06;;;;;;;5.53;4.03;;;;;;;5.94;100.00;101113.59;3570754;40;20056;-61
2021/05/07 06:45:32;;;;;;;6.07;4.05;;;;;;;5.92;100.00;101112.84;3571637;40;20049;-63
2021/05/07 06:47:58;;;;;;;5.88;4.15;;;;;;;6.13;100.00;101118.63;3571685;40;20052;-60
2021/05/07 06:50:24;;;;;;;5.47;3.88;;;;;;;6.23;100.00;101123.38;3570770;40;20409;-61
2021/05/07 06:52:50;;;;;;;6.60;4.80;;;;;;;6.20;100.00;101126.22;3571978;40;20065;-61
2021/05/07 06:55:16;;;;;;;5.55;4.32;;;;;;;6.31;100.00;101127.22;3571209;40;20041;-61
2021/05/07 06:57:42;;;;;;;6.53;3.95;;;;;;;6.52;100.00;101124.06;3571182;40;20139;-61
2021/05/07 07:00:10;;;;;;;6.00;4.10;;;;;;;6.48;100.00;101133.28;3571228;40;20068;-62
2021/05/07 07:02:37;;;;;;;5.63;4.00;;;;;;;6.58;100.00;101131.72;3571473;40;20053;-61
2021/05/07 07:05:04;;;;;;;6.07;4.13;;;;;;;6.78;100.00;101133.00;3571667;40;20052;-62
2021/05/07 07:07:30;;;;;;;5.93;4.15;;;;;;;6.82;100.00;101133.66;3572434;40;20053;-64
2021/05/07 07:09:56;;;;;;;5.85;4.60;;;;;;;6.76;100.00;101132.28;3570890;40;20057;-61
2021/05/07 07:12:23;;;;;;;5.30;4.40;;;;;;;6.88;100.00;101140.44;3570921;40;20052;-63
2021/05/07 07:14:49;;;;;;;7.72;4.95;;;;;;;6.89;100.00;101144.78;3571288;40;20496;-62
2021/05/07 07:17:16;;;;;;;7.45;4.30;;;;;;;6.92;100.00;101150.81;3570694;40;20045;-62
2021/05/07 07:19:43;;;;;;;6.97;4.60;;;;;;;7.03;100.00;101157.25;3570644;40;20127;-61
2021/05/07 07:22:09;;;;;;;6.10;4.20;;;;;;;7.10;100.00;101156.69;3570350;40;20063;-61
2021/05/07 07:24:35;;;;;;;5.78;4.15;;;;;;;7.32;100.00;101156.06;3570915;40;20049;-62
2021/05/07 07:27:01;;;;;;;5.18;3.92;;;;;;;7.53;100.00;101163.53;3571837;40;20478;-61
2021/05/07 07:29:27;;;;;;;4.95;4.05;;;;;;;7.68;100.00;101165.13;3570884;40;20041;-64
2021/05/07 07:31:53;;;;;;;8.55;4.00;;;;;;;7.97;100.00;101167.53;3571288;40;20281;-61
2021/05/07 07:34:19;;;;;;;6.88;4.30;;;;;;;7.68;100.00;101167.78;3570055;40;20041;-61
2021/05/07 07:36:46;;;;;;;8.63;4.73;;;;;;;7.77;100.00;101177.00;3571632;40;20050;-61
2021/05/07 07:39:12;;;;;;;5.82;3.97;;;;;;;7.72;100.00;101174.66;3570727;40;20249;-64
2021/05/07 07:41:39;;;;;;;6.18;4.00;;;;;;;8.29;100.00;101185.78;3569706;40;20041;-60
2021/05/07 07:44:06;;;;;;;5.30;4.10;;;;;;;7.93;100.00;101192.00;3570256;40;20127;-61
2021/05/07 07:46:32;;;;;;;6.63;3.92;;;;;;;7.82;100.00;101180.22;3571773;40;20351;-65
2021/05/07 07:48:58;;;;;;;5.88;4.60;;;;;;;8.09;100.00;101186.38;3571187;40;20090;-62
2021/05/07 07:51:28;;;;;;;8.27;4.57;;;;;;;8.47;100.00;101190.78;3570567;40;20049;-61
2021/05/07 07:53:56;;;;;;;6.28;4.05;;;;;;;8.60;100.00;101188.88;3571214;40;20131;-62
2021/05/07 07:56:22;;;;;;;6.82;3.63;;;;;;;8.58;100.00;101196.16;3570296;40;20079;-62
2021/05/07 07:58:48;;;;;;;5.30;3.40;;;;;;;8.85;100.00;101216.53;3571774;40;20408;-65
2021/05/07 08:01:14;;;;;;;5.47;3.85;;;;;;;8.68;100.00;101210.59;3570136;40;20041;-63
2021/05/07 08:03:40;;;;;;;8.35;3.83;;;;;;;8.85;100.00;101217.41;3569739;40;20045;-62
2021/05/07 08:06:05;;;;;;;6.38;3.20;;;;;;;9.07;100.00;101221.16;3569927;40;20056;-62
2021/05/07 08:08:31;;;;;;;4.72;3.03;;;;;;;8.80;100.00;101221.41;3569854;40;20041;-61
2021/05/07 08:10:58;;;;;;;3.65;2.80;;;;;;;9.00;100.00;101219.91;3569648;40;20052;-64
2021/05/07 08:13:24;;;;;;;5.22;2.65;;;;;;;9.28;100.00;101224.00;3567828;40;20368;-62
2021/05/07 08:15:50;;;;;;;6.80;2.67;;;;;;;9.03;100.00;101225.88;3568971;40;20151;-62
2021/05/07 08:18:16;;;;;;;4.07;1.90;;;;;;;8.93;100.00;101236.44;3570252;40;20135;-62
2021/05/07 08:20:43;;;;;;;5.47;2.08;;;;;;;8.59;100.00;101232.78;3569663;40;20410;-60
2021/05/07 08:23:09;;;;;;;3.03;1.85;;;;;;;8.90;100.00;101247.44;3568047;40;20038;-61
2021/05/07 08:25:35;;;;;;;3.78;1.50;;;;;;;9.01;100.00;101246.63;3569932;40;20296;-61
2021/05/07 08:28:01;;;;;;;2.90;1.48;;;;;;;9.46;100.00;101246.72;3569689;40;20049;-62
2021/05/07 08:30:27;;;;;;;2.97;1.50;;;;;;;9.69;100.00;101244.09;3569565;40;20154;-61
2021/05/07 08:32:53;;;;;;;3.05;1.50;;;;;;;9.70;100.00;101244.94;3569922;40;20060;-61
2021/05/07 08:35:19;;;;;;;4.22;2.00;;;;;;;10.16;100.00;101252.88;3568420;40;20190;-62
2021/05/07 08:37:45;;;;;;;4.63;1.92;;;;;;;10.30;99.95;101253.59;3570005;40;20060;-62
2021/05/07 08:40:14;;;;;;;3.53;1.70;;;;;;;10.14;96.87;101257.53;3570108;40;20093;-64
2021/05/07 08:42:40;;;;;;;4.03;1.63;;;;;;;9.68;95.53;101263.03;3570723;40;20049;-61
2021/05/07 08:45:08;;;;;;;2.65;1.20;;;;;;;10.05;94.01;101265.47;3571603;40;20045;-61
2021/05/07 08:47:35;;;;;;;2.53;1.23;;;;;;;10.28;91.97;101277.09;3573271;40;20126;-63
2021/05/07 08:50:02;;;;;;;3.28;1.40;;;;;;;10.05;89.63;101277.09;3571668;40;20055;-62
2021/05/07 08:52:28;;;;;;;5.07;1.52;;;;;;;10.39;86.42;101273.56;3572299;40;20049;-61
2021/05/07 08:54:56;;;;;;;3.92;1.58;;;;;;;10.63;86.51;101281.44;3571222;40;20316;-63
2021/05/07 08:57:22;;;;;;;5.15;1.63;;;;;;;10.34;92.88;101285.53;3572537;40;20073;-64
2021/05/07 08:59:49;;;;;;;2.90;1.60;;;;;;;10.22;85.92;101289.19;3572547;40;20252;-62
2021/05/07 09:02:24;;;;;;;4.63;2.00;;;;;;;10.26;83.36;101290.66;3571552;40;20060;-61
2021/05/07 09:04:51;;;;;;;2.10;1.42;;;;;;;10.79;84.24;101292.69;3572372;40;20305;-60
2021/05/07 09:07:17;;;;;;;4.32;1.50;;;;;;;11.09;77.92;101299.19;3572376;40;20056;-60
2021/05/07 09:09:49;;;;;;;2.47;1.60;;;;;;;11.05;75.26;101305.81;3571989;40;21852;-60
2021/05/07 09:12:28;;;;;;;3.20;1.60;;;;;;;11.16;77.30;101303.06;3572366;40;20660;-63
2021/05/07 09:14:54;;;;;;;4.03;1.73;;;;;;;11.18;79.78;101306.47;3572748;40;20063;-62
2021/05/07 09:17:21;;;;;;;3.35;1.58;;;;;;;10.84;77.86;101311.16;3571880;40;20092;-65
2021/05/07 09:19:49;;;;;;;4.05;1.80;;;;;;;10.69;80.14;101315.97;3572942;40;20033;-63
2021/05/07 09:22:25;;;;;;;3.63;1.70;;;;;;;11.32;75.42;101326.03;3572782;40;20049;-61
2021/05/07 09:25:06;;;;;;;2.15;1.42;;;;;;;11.27;70.73;101322.88;3572806;40;20047;-61
2021/05/07 09:27:32;;;;;;;4.90;1.70;;;;;;;10.80;75.30;101321.31;3571594;40;20436;-61
2021/05/07 09:29:58;;;;;;;4.28;1.70;;;;;;;11.05;78.53;101332.75;3572808;40;20049;-61
2021/05/07 09:32:29;;;;;;;4.38;1.80;;;;;;;11.17;77.09;101334.44;3572193;40;20122;-62
2021/05/07 09:35:06;;;;;;;2.65;1.60;;;;;;;10.72;77.97;101337.25;3573048;40;20370;-60
2021/05/07 09:37:32;;;;;;;3.20;1.50;;;;;;;10.86;82.17;101338.78;3573085;40;20395;-61
2021/05/07 09:40:17;;;;;;;4.43;1.40;;;;;;;11.03;79.42;101342.81;3571900;40;20046;-62
2021/05/07 09:42:44;;;;;;;4.07;1.40;;;;;;;10.49;82.91;101347.19;3572589;40;20109;-61
2021/05/07 09:45:20;;;;;;;3.63;1.52;;;;;;;10.68;84.42;101349.25;3572345;40;20126;-64
2021/05/07 09:47:48;;;;;;;3.35;1.60;;;;;;;10.79;84.04;101351.94;3572968;40;20060;-62
2021/05/07 09:50:16;;;;;;;2.50;1.48;;;;;;;11.23;84.69;101357.28;3571606;40;20046;-64
2021/05/07 09:55:35;;;;;;;4.03;1.20;;;;;;;11.54;77.90;101369.06;3617787;23;20141;-61
2021/05/07 09:58:03;;;;;;;2.00;1.30;;;;;;;11.32;72.74;101369.13;3582326;40;20166;-62
2021/05/07 10:00:29;;;;;;;3.17;1.52;;;;;;;10.87;74.57;101373.69;3582024;40;20053;-62
2021/05/07 10:02:55;;;;;;;2.92;1.40;;;;;;;11.33;73.20;101370.84;3582462;40;20056;-62
2021/05/07 10:05:23;;;;;;;2.03;1.10;;;;;;;11.48;73.79;101374.94;3582100;40;20655;-63
2021/05/07 10:07:49;;;;;;;3.65;1.33;;;;;;;11.21;77.34;101381.66;3581987;40;20088;-61
2021/05/07 10:10:16;;;;;;;4.82;1.40;;;;;;;10.90;78.44;101390.59;3581758;40;20065;-61
2021/05/07 10:12:46;;;;;;;3.35;0.85;;;;;;;10.54;83.56;101395.25;3580740;40;20129;-62
2021/05/07 10:15:12;;;;;;;3.17;1.40;;;;;;;10.44;83.23;101398.69;3580914;40;20427;-61
2021/05/07 10:17:49;;;;;;;2.05;1.30;;;;;;;11.33;75.06;101398.66;3581488;40;20044;-63
2021/05/07 10:20:23;;;;;;;1.83;1.27;;;;;;;11.61;68.41;101401.72;3581190;40;20096;-62
2021/05/07 10:22:49;;;;;;;2.50;1.20;;;;;;;11.96;72.56;101406.00;3580268;40;20052;-62
2021/05/07 10:28:15;;;;;;;4.10;1.42;;;;;;;12.26;69.56;101407.03;3584263;23;20379;-62
2021/05/07 10:30:41;;;;;;;1.88;1.33;;;;;;;11.72;75.59;101414.31;3561373;40;20059;-61
2021/05/07 10:33:10;;;;;;;3.30;1.50;;;;;;;11.28;79.20;101417.06;3561240;40;20416;-62
2021/05/07 10:35:38;;;;;;;2.65;1.40;;;;;;;11.45;82.36;101417.50;3562136;40;20049;-62
2021/05/07 10:38:13;;;;;;;3.27;1.43;;;;;;;12.16;74.68;101420.47;3561038;40;20053;-63
2021/05/07 10:40:39;;;;;;;3.15;1.20;;;;;;;12.59;67.24;101415.88;3561015;40;20175;-64
2021/05/07 10:43:06;;;;;;;3.88;1.67;;;;;;;12.57;68.68;101424.09;3561287;40;20046;-64
2021/05/07 10:45:40;;;;;;;1.90;1.23;;;;;;;12.85;68.15;101429.72;3561951;40;20048;-60
2021/05/07 10:48:17;;;;;;;2.35;1.25;;;;;;;12.62;65.45;101424.53;3560511;40;20498;-62
2021/05/07 10:50:45;;;;;;;4.22;1.35;;;;;;;12.29;67.81;101427.50;3556768;40;20046;-62
2021/05/07 10:53:22;;;;;;;3.92;1.30;;;;;;;12.80;66.20;101427.44;3559812;40;20060;-62
2021/05/07 10:55:48;;;;;;;4.65;1.60;;;;;;;13.28;59.22;101433.13;3559618;40;20886;-66
2021/05/07 10:58:14;;;;;;;2.53;1.50;;;;;;;12.57;55.53;101436.72;3560683;40;20053;-62
2021/05/07 11:00:40;;;;;;;4.25;1.60;;;;;;;12.16;63.79;101439.38;3560046;40;20384;-62
2021/05/07 11:03:18;;;;;;;3.90;1.77;;;;;;;12.65;58.42;101434.22;3560444;40;20053;-62
2021/05/07 11:05:48;;;;;;;2.17;1.30;;;;;;;13.23;57.57;101438.09;3561024;40;20038;-65
2021/05/07 11:08:14;;;;;;;;;;;;;;;13.27;57.60;101429.56;3561296;40;20045;-65
2021/05/07 11:10:40;;;;;;;2.67;1.42;;;;;;;13.41;59.28;101431.06;3560739;40;20208;-64
2021/05/07 11:13:07;;;;;;;4.53;1.45;;;;;;;13.45;58.86;101437.88;3560912;40;20073;-62
2021/05/07 11:15:33;;;;;;;4.28;1.27;;;;;;;13.62;56.47;101439.03;3557468;40;20068;-62
2021/05/07 11:18:01;;;;;;;2.97;1.48;;;;;;;13.73;52.20;101446.13;3561340;40;20069;-65
2021/05/07 11:20:32;;;;;;;2.42;1.48;;;;;;;13.67;53.02;101447.56;3561962;40;20108;-61
2021/05/07 11:23:00;;;;;;;2.70;1.40;;;;;;;13.75;51.39;101432.47;3560696;40;20064;-64
2021/05/07 11:25:26;;;;;;;3.05;1.45;;;;;;;13.72;53.23;101446.28;3561174;40;20057;-62
2021/05/07 11:27:52;;;;;;;5.32;1.75;;;;;;;13.15;62.46;101452.31;3630058;22;20378;-64
2021/05/07 11:30:18;;;;;;;6.50;1.70;;;;;;;12.95;65.78;101446.84;3571419;40;20069;-64
2021/05/07 11:32:44;;;;;;;2.92;1.60;;;;;;;12.30;62.32;101456.22;3571549;40;20056;-63
2021/05/07 11:35:12;;;;;;;2.45;1.60;;;;;;;11.89;60.50;101462.28;3571116;40;20045;-61